sensor_id;sensor_type;location;lat;lon;timestamp;P1;durP1;ratioP1;P2;durP2;ratioP2
57337;SDS011;43173;50.980;18.204;2023-04-09T00:01:47;68.00;;;28.20;;
57337;SDS011;43173;50.980;18.204;2023-04-09T00:04:12;63.10;;;26.70;;
57337;SDS011;43173;50.980;18.204;2023-04-09T00:06:38;59.10;;;26.90;;
57337;SDS011;43173;50.980;18.204;2023-04-09T00:09:03;57.50;;;25.40;;
57337;SDS011;43173;50.980;18.204;2023-04-09T00:11:29;57.70;;;26.70;;
57337;SDS011;43173;50.980;18.204;2023-04-09T00:13:56;54.20;;;25.60;;
57337;SDS011;43173;50.980;18.204;2023-04-09T00:16:22;66.40;;;27.70;;
57337;SDS011;43173;50.980;18.204;2023-04-09T00:18:48;53.20;;;26.70;;
57337;SDS011;43173;50.980;18.204;2023-04-09T00:21:14;51.80;;;26.60;;
57337;SDS011;43173;50.980;18.204;2023-04-09T00:23:41;57.00;;;27.50;;
57337;SDS011;43173;50.980;18.204;2023-04-09T00:26:07;64.40;;;28.00;;
57337;SDS011;43173;50.980;18.204;2023-04-09T00:28:33;56.70;;;26.70;;
57337;SDS011;43173;50.980;18.204;2023-04-09T00:31:00;61.20;;;27.10;;
57337;SDS011;43173;50.980;18.204;2023-04-09T00:33:26;62.40;;;27.90;;
57337;SDS011;43173;50.980;18.204;2023-04-09T00:35:52;56.50;;;27.30;;
57337;SDS011;43173;50.980;18.204;2023-04-09T00:38:18;54.80;;;26.50;;
57337;SDS011;43173;50.980;18.204;2023-04-09T00:40:44;56.30;;;27.20;;
57337;SDS011;43173;50.980;18.204;2023-04-09T00:43:13;50.80;;;25.70;;
57337;SDS011;43173;50.980;18.204;2023-04-09T00:45:38;49.10;;;25.40;;
57337;SDS011;43173;50.980;18.204;2023-04-09T00:48:04;51.00;;;25.20;;
57337;SDS011;43173;50.980;18.204;2023-04-09T00:50:30;52.80;;;26.90;;
57337;SDS011;43173;50.980;18.204;2023-04-09T00:52:56;48.70;;;25.60;;
57337;SDS011;43173;50.980;18.204;2023-04-09T00:55:21;45.40;;;24.90;;
57337;SDS011;43173;50.980;18.204;2023-04-09T00:57:47;47.30;;;26.10;;
57337;SDS011;43173;50.980;18.204;2023-04-09T01:00:13;47.70;;;26.10;;
57337;SDS011;43173;50.980;18.204;2023-04-09T01:02:39;46.50;;;26.10;;
57337;SDS011;43173;50.980;18.204;2023-04-09T01:05:05;46.30;;;24.70;;
57337;SDS011;43173;50.980;18.204;2023-04-09T01:16:21;44.00;;;23.00;;
57337;SDS011;43173;50.980;18.204;2023-04-09T01:18:56;46.30;;;24.00;;
57337;SDS011;43173;50.980;18.204;2023-04-09T01:21:30;47.50;;;25.50;;
57337;SDS011;43173;50.980;18.204;2023-04-09T01:29:31;45.10;;;25.10;;
57337;SDS011;43173;50.980;18.204;2023-04-09T01:31:59;44.50;;;25.10;;
57337;SDS011;43173;50.980;18.204;2023-04-09T01:34:26;49.90;;;27.30;;
57337;SDS011;43173;50.980;18.204;2023-04-09T01:36:54;50.40;;;27.90;;
57337;SDS011;43173;50.980;18.204;2023-04-09T01:39:22;54.20;;;28.60;;
57337;SDS011;43173;50.980;18.204;2023-04-09T01:41:49;53.70;;;30.00;;
57337;SDS011;43173;50.980;18.204;2023-04-09T01:44:16;55.70;;;29.80;;
57337;SDS011;43173;50.980;18.204;2023-04-09T01:46:42;60.50;;;31.30;;
57337;SDS011;43173;50.980;18.204;2023-04-09T01:49:08;59.50;;;30.00;;
57337;SDS011;43173;50.980;18.204;2023-04-09T01:51:34;57.00;;;29.20;;
57337;SDS011;43173;50.980;18.204;2023-04-09T01:54:01;54.00;;;29.00;;
57337;SDS011;43173;50.980;18.204;2023-04-09T01:56:38;55.50;;;28.80;;
57337;SDS011;43173;50.980;18.204;2023-04-09T01:59:11;57.00;;;29.10;;
57337;SDS011;43173;50.980;18.204;2023-04-09T02:01:43;52.30;;;27.10;;
57337;SDS011;43173;50.980;18.204;2023-04-09T02:04:53;59.90;;;31.70;;
57337;SDS011;43173;50.980;18.204;2023-04-09T02:07:09;57.40;;;28.00;;
57337;SDS011;43173;50.980;18.204;2023-04-09T02:09:38;55.30;;;28.00;;
57337;SDS011;43173;50.980;18.204;2023-04-09T02:12:05;57.20;;;29.70;;
57337;SDS011;43173;50.980;18.204;2023-04-09T02:14:39;51.50;;;26.60;;
57337;SDS011;43173;50.980;18.204;2023-04-09T02:17:04;47.10;;;25.20;;
57337;SDS011;43173;50.980;18.204;2023-04-09T02:24:37;55.50;;;27.00;;
57337;SDS011;43173;50.980;18.204;2023-04-09T02:27:04;60.10;;;29.30;;
57337;SDS011;43173;50.980;18.204;2023-04-09T02:29:30;61.10;;;30.70;;
57337;SDS011;43173;50.980;18.204;2023-04-09T02:31:56;61.00;;;31.50;;
57337;SDS011;43173;50.980;18.204;2023-04-09T02:34:25;54.70;;;27.20;;
57337;SDS011;43173;50.980;18.204;2023-04-09T02:36:51;52.40;;;27.80;;
57337;SDS011;43173;50.980;18.204;2023-04-09T02:39:17;49.90;;;25.50;;
57337;SDS011;43173;50.980;18.204;2023-04-09T02:41:43;54.10;;;27.20;;
57337;SDS011;43173;50.980;18.204;2023-04-09T02:44:08;49.20;;;24.50;;
57337;SDS011;43173;50.980;18.204;2023-04-09T02:46:34;52.80;;;26.50;;
57337;SDS011;43173;50.980;18.204;2023-04-09T02:48:59;53.10;;;26.60;;
57337;SDS011;43173;50.980;18.204;2023-04-09T02:51:25;50.20;;;26.20;;
57337;SDS011;43173;50.980;18.204;2023-04-09T02:53:52;57.30;;;27.80;;
57337;SDS011;43173;50.980;18.204;2023-04-09T02:56:17;56.50;;;27.70;;
57337;SDS011;43173;50.980;18.204;2023-04-09T02:58:43;50.40;;;26.40;;
57337;SDS011;43173;50.980;18.204;2023-04-09T03:01:09;43.30;;;23.90;;
57337;SDS011;43173;50.980;18.204;2023-04-09T03:03:35;42.50;;;23.50;;
57337;SDS011;43173;50.980;18.204;2023-04-09T03:06:04;45.50;;;21.70;;
57337;SDS011;43173;50.980;18.204;2023-04-09T03:08:29;40.30;;;22.50;;
57337;SDS011;43173;50.980;18.204;2023-04-09T03:10:55;44.80;;;23.50;;
57337;SDS011;43173;50.980;18.204;2023-04-09T03:13:20;44.00;;;22.40;;
57337;SDS011;43173;50.980;18.204;2023-04-09T03:15:50;44.50;;;21.90;;
57337;SDS011;43173;50.980;18.204;2023-04-09T03:18:17;39.90;;;20.60;;
57337;SDS011;43173;50.980;18.204;2023-04-09T03:20:43;39.80;;;19.30;;
57337;SDS011;43173;50.980;18.204;2023-04-09T03:23:09;33.10;;;18.90;;
57337;SDS011;43173;50.980;18.204;2023-04-09T03:25:34;31.30;;;17.00;;
57337;SDS011;43173;50.980;18.204;2023-04-09T03:28:00;32.00;;;18.20;;
57337;SDS011;43173;50.980;18.204;2023-04-09T03:30:27;31.20;;;18.70;;
57337;SDS011;43173;50.980;18.204;2023-04-09T03:32:53;33.70;;;18.60;;
57337;SDS011;43173;50.980;18.204;2023-04-09T03:35:19;32.10;;;17.50;;
57337;SDS011;43173;50.980;18.204;2023-04-09T03:37:44;32.70;;;18.40;;
57337;SDS011;43173;50.980;18.204;2023-04-09T03:40:10;33.90;;;19.90;;
57337;SDS011;43173;50.980;18.204;2023-04-09T03:42:36;34.90;;;19.20;;
57337;SDS011;43173;50.980;18.204;2023-04-09T03:45:02;35.60;;;19.40;;
57337;SDS011;43173;50.980;18.204;2023-04-09T03:47:29;36.10;;;19.90;;
57337;SDS011;43173;50.980;18.204;2023-04-09T03:49:54;35.70;;;21.20;;
57337;SDS011;43173;50.980;18.204;2023-04-09T03:52:20;33.40;;;20.10;;
57337;SDS011;43173;50.980;18.204;2023-04-09T03:54:46;33.80;;;19.10;;
57337;SDS011;43173;50.980;18.204;2023-04-09T03:57:12;36.90;;;20.40;;
57337;SDS011;43173;50.980;18.204;2023-04-09T03:59:38;36.50;;;20.10;;
57337;SDS011;43173;50.980;18.204;2023-04-09T04:02:04;36.40;;;19.70;;
57337;SDS011;43173;50.980;18.204;2023-04-09T04:04:30;37.10;;;20.40;;
57337;SDS011;43173;50.980;18.204;2023-04-09T04:06:55;38.30;;;21.00;;
57337;SDS011;43173;50.980;18.204;2023-04-09T04:09:21;33.20;;;18.80;;
57337;SDS011;43173;50.980;18.204;2023-04-09T04:11:46;33.50;;;19.10;;
57337;SDS011;43173;50.980;18.204;2023-04-09T04:14:12;39.10;;;19.90;;
57337;SDS011;43173;50.980;18.204;2023-04-09T04:16:39;34.90;;;20.50;;
57337;SDS011;43173;50.980;18.204;2023-04-09T04:19:05;33.20;;;19.20;;
57337;SDS011;43173;50.980;18.204;2023-04-09T04:21:31;39.90;;;19.50;;
57337;SDS011;43173;50.980;18.204;2023-04-09T04:23:56;33.10;;;19.50;;
57337;SDS011;43173;50.980;18.204;2023-04-09T04:26:22;37.40;;;18.00;;
57337;SDS011;43173;50.980;18.204;2023-04-09T04:28:48;31.30;;;17.00;;
57337;SDS011;43173;50.980;18.204;2023-04-09T04:31:13;34.70;;;18.60;;
57337;SDS011;43173;50.980;18.204;2023-04-09T04:33:40;32.10;;;17.60;;
57337;SDS011;43173;50.980;18.204;2023-04-09T04:36:08;34.90;;;17.90;;
57337;SDS011;43173;50.980;18.204;2023-04-09T04:38:34;31.10;;;17.60;;
57337;SDS011;43173;50.980;18.204;2023-04-09T04:41:01;33.50;;;19.40;;
57337;SDS011;43173;50.980;18.204;2023-04-09T04:43:27;34.80;;;18.70;;
57337;SDS011;43173;50.980;18.204;2023-04-09T04:45:52;35.20;;;19.00;;
57337;SDS011;43173;50.980;18.204;2023-04-09T04:48:19;33.80;;;18.80;;
57337;SDS011;43173;50.980;18.204;2023-04-09T04:50:44;36.60;;;19.50;;
57337;SDS011;43173;50.980;18.204;2023-04-09T04:53:10;36.50;;;19.90;;
57337;SDS011;43173;50.980;18.204;2023-04-09T04:55:36;36.80;;;19.00;;
57337;SDS011;43173;50.980;18.204;2023-04-09T04:58:04;34.90;;;20.30;;
57337;SDS011;43173;50.980;18.204;2023-04-09T05:00:30;36.40;;;21.10;;
57337;SDS011;43173;50.980;18.204;2023-04-09T05:02:56;36.50;;;20.90;;
57337;SDS011;43173;50.980;18.204;2023-04-09T05:05:22;37.10;;;21.70;;
57337;SDS011;43173;50.980;18.204;2023-04-09T05:07:47;39.50;;;21.20;;
57337;SDS011;43173;50.980;18.204;2023-04-09T05:10:13;37.80;;;20.40;;
57337;SDS011;43173;50.980;18.204;2023-04-09T05:12:38;41.00;;;21.80;;
57337;SDS011;43173;50.980;18.204;2023-04-09T05:15:04;41.10;;;21.00;;
57337;SDS011;43173;50.980;18.204;2023-04-09T05:17:32;42.20;;;20.80;;
57337;SDS011;43173;50.980;18.204;2023-04-09T05:19:58;41.10;;;22.00;;
57337;SDS011;43173;50.980;18.204;2023-04-09T05:22:24;38.30;;;21.00;;
57337;SDS011;43173;50.980;18.204;2023-04-09T05:24:50;41.10;;;21.70;;
57337;SDS011;43173;50.980;18.204;2023-04-09T05:27:15;43.90;;;22.50;;
57337;SDS011;43173;50.980;18.204;2023-04-09T05:29:43;37.90;;;21.80;;
57337;SDS011;43173;50.980;18.204;2023-04-09T05:32:10;41.30;;;22.20;;
57337;SDS011;43173;50.980;18.204;2023-04-09T05:34:35;43.20;;;22.80;;
57337;SDS011;43173;50.980;18.204;2023-04-09T05:37:01;39.80;;;23.50;;
57337;SDS011;43173;50.980;18.204;2023-04-09T05:39:26;41.60;;;22.70;;
57337;SDS011;43173;50.980;18.204;2023-04-09T05:41:52;42.60;;;22.80;;
57337;SDS011;43173;50.980;18.204;2023-04-09T05:44:17;38.60;;;21.80;;
57337;SDS011;43173;50.980;18.204;2023-04-09T05:46:43;43.00;;;21.90;;
57337;SDS011;43173;50.980;18.204;2023-04-09T05:49:09;42.50;;;23.10;;
57337;SDS011;43173;50.980;18.204;2023-04-09T05:51:35;44.90;;;25.30;;
57337;SDS011;43173;50.980;18.204;2023-04-09T05:54:01;44.20;;;25.80;;
57337;SDS011;43173;50.980;18.204;2023-04-09T05:56:27;45.30;;;24.70;;
57337;SDS011;43173;50.980;18.204;2023-04-09T05:58:53;43.60;;;23.70;;
57337;SDS011;43173;50.980;18.204;2023-04-09T06:01:18;46.10;;;24.40;;
57337;SDS011;43173;50.980;18.204;2023-04-09T06:03:45;42.70;;;24.50;;
57337;SDS011;43173;50.980;18.204;2023-04-09T06:06:11;44.60;;;23.40;;
57337;SDS011;43173;50.980;18.204;2023-04-09T06:08:37;48.20;;;25.10;;
57337;SDS011;43173;50.980;18.204;2023-04-09T06:13:38;46.50;;;24.90;;
57337;SDS011;43173;50.980;18.204;2023-04-09T06:16:05;42.10;;;24.80;;
57337;SDS011;43173;50.980;18.204;2023-04-09T06:18:33;46.90;;;25.30;;
57337;SDS011;43173;50.980;18.204;2023-04-09T06:23:27;42.90;;;23.30;;
57337;SDS011;43173;50.980;18.204;2023-04-09T06:25:53;42.20;;;22.70;;
57337;SDS011;43173;50.980;18.204;2023-04-09T06:28:19;42.20;;;23.10;;
57337;SDS011;43173;50.980;18.204;2023-04-09T06:30:45;39.70;;;23.20;;
57337;SDS011;43173;50.980;18.204;2023-04-09T06:33:11;44.10;;;24.10;;
57337;SDS011;43173;50.980;18.204;2023-04-09T06:35:37;43.10;;;24.70;;
57337;SDS011;43173;50.980;18.204;2023-04-09T06:38:02;42.80;;;23.40;;
57337;SDS011;43173;50.980;18.204;2023-04-09T06:40:28;45.80;;;24.70;;
57337;SDS011;43173;50.980;18.204;2023-04-09T06:42:54;44.80;;;25.30;;
57337;SDS011;43173;50.980;18.204;2023-04-09T06:45:20;44.30;;;23.90;;
57337;SDS011;43173;50.980;18.204;2023-04-09T06:47:45;43.70;;;23.60;;
57337;SDS011;43173;50.980;18.204;2023-04-09T06:50:11;42.30;;;23.00;;
57337;SDS011;43173;50.980;18.204;2023-04-09T06:52:36;45.90;;;24.30;;
57337;SDS011;43173;50.980;18.204;2023-04-09T06:55:02;45.20;;;24.80;;
57337;SDS011;43173;50.980;18.204;2023-04-09T06:57:28;43.70;;;23.40;;
57337;SDS011;43173;50.980;18.204;2023-04-09T06:59:53;45.20;;;24.40;;
57337;SDS011;43173;50.980;18.204;2023-04-09T07:02:20;45.00;;;24.40;;
57337;SDS011;43173;50.980;18.204;2023-04-09T07:04:45;43.80;;;24.40;;
57337;SDS011;43173;50.980;18.204;2023-04-09T07:07:11;44.80;;;24.40;;
57337;SDS011;43173;50.980;18.204;2023-04-09T07:09:37;41.20;;;24.30;;
57337;SDS011;43173;50.980;18.204;2023-04-09T07:12:03;45.40;;;24.40;;
57337;SDS011;43173;50.980;18.204;2023-04-09T07:14:28;41.60;;;24.30;;
57337;SDS011;43173;50.980;18.204;2023-04-09T07:16:54;37.30;;;22.30;;
57337;SDS011;43173;50.980;18.204;2023-04-09T07:19:20;41.80;;;23.90;;
57337;SDS011;43173;50.980;18.204;2023-04-09T07:21:45;42.10;;;23.60;;
57337;SDS011;43173;50.980;18.204;2023-04-09T07:24:11;43.80;;;25.10;;
57337;SDS011;43173;50.980;18.204;2023-04-09T07:26:36;41.50;;;23.70;;
57337;SDS011;43173;50.980;18.204;2023-04-09T07:29:02;42.20;;;24.60;;
57337;SDS011;43173;50.980;18.204;2023-04-09T07:31:28;44.00;;;25.30;;
57337;SDS011;43173;50.980;18.204;2023-04-09T07:33:54;43.30;;;25.10;;
57337;SDS011;43173;50.980;18.204;2023-04-09T07:36:19;41.80;;;24.30;;
57337;SDS011;43173;50.980;18.204;2023-04-09T07:38:45;47.50;;;25.90;;
57337;SDS011;43173;50.980;18.204;2023-04-09T07:41:11;47.00;;;26.20;;
57337;SDS011;43173;50.980;18.204;2023-04-09T07:43:36;40.50;;;23.30;;
57337;SDS011;43173;50.980;18.204;2023-04-09T07:46:02;42.10;;;23.90;;
57337;SDS011;43173;50.980;18.204;2023-04-09T07:48:28;44.00;;;23.60;;
57337;SDS011;43173;50.980;18.204;2023-04-09T07:50:54;41.70;;;23.70;;
57337;SDS011;43173;50.980;18.204;2023-04-09T07:53:20;40.60;;;23.20;;
57337;SDS011;43173;50.980;18.204;2023-04-09T07:55:45;41.80;;;24.30;;
57337;SDS011;43173;50.980;18.204;2023-04-09T07:58:11;37.50;;;22.30;;
57337;SDS011;43173;50.980;18.204;2023-04-09T08:00:36;39.30;;;23.20;;
57337;SDS011;43173;50.980;18.204;2023-04-09T08:03:02;42.30;;;23.30;;
57337;SDS011;43173;50.980;18.204;2023-04-09T08:05:28;40.10;;;23.30;;
57337;SDS011;43173;50.980;18.204;2023-04-09T08:07:54;46.60;;;26.30;;
57337;SDS011;43173;50.980;18.204;2023-04-09T08:10:20;52.20;;;31.50;;
57337;SDS011;43173;50.980;18.204;2023-04-09T08:12:46;52.30;;;28.40;;
57337;SDS011;43173;50.980;18.204;2023-04-09T08:15:12;49.50;;;29.20;;
57337;SDS011;43173;50.980;18.204;2023-04-09T08:17:38;45.50;;;26.70;;
57337;SDS011;43173;50.980;18.204;2023-04-09T08:20:04;43.50;;;25.10;;
57337;SDS011;43173;50.980;18.204;2023-04-09T08:22:30;42.80;;;24.20;;
57337;SDS011;43173;50.980;18.204;2023-04-09T08:24:56;43.40;;;24.60;;
57337;SDS011;43173;50.980;18.204;2023-04-09T08:27:22;43.50;;;25.10;;
57337;SDS011;43173;50.980;18.204;2023-04-09T08:29:47;38.80;;;23.90;;
57337;SDS011;43173;50.980;18.204;2023-04-09T08:32:13;39.30;;;23.80;;
57337;SDS011;43173;50.980;18.204;2023-04-09T08:34:39;36.40;;;21.70;;
57337;SDS011;43173;50.980;18.204;2023-04-09T08:37:05;38.60;;;22.90;;
57337;SDS011;43173;50.980;18.204;2023-04-09T08:39:31;37.60;;;23.10;;
57337;SDS011;43173;50.980;18.204;2023-04-09T08:41:57;38.40;;;22.50;;
57337;SDS011;43173;50.980;18.204;2023-04-09T08:44:26;38.50;;;22.70;;
57337;SDS011;43173;50.980;18.204;2023-04-09T08:46:53;38.30;;;22.60;;
57337;SDS011;43173;50.980;18.204;2023-04-09T08:49:19;38.80;;;21.60;;
57337;SDS011;43173;50.980;18.204;2023-04-09T08:51:46;42.00;;;23.70;;
57337;SDS011;43173;50.980;18.204;2023-04-09T08:54:16;38.30;;;22.90;;
57337;SDS011;43173;50.980;18.204;2023-04-09T08:56:47;40.70;;;24.20;;
57337;SDS011;43173;50.980;18.204;2023-04-09T08:59:14;39.80;;;22.90;;
57337;SDS011;43173;50.980;18.204;2023-04-09T09:01:42;38.40;;;22.30;;
57337;SDS011;43173;50.980;18.204;2023-04-09T09:04:08;36.50;;;20.10;;
57337;SDS011;43173;50.980;18.204;2023-04-09T09:06:35;36.10;;;20.80;;
57337;SDS011;43173;50.980;18.204;2023-04-09T09:14:04;35.70;;;21.10;;
57337;SDS011;43173;50.980;18.204;2023-04-09T09:16:32;39.60;;;22.40;;
57337;SDS011;43173;50.980;18.204;2023-04-09T09:19:06;39.30;;;21.70;;
57337;SDS011;43173;50.980;18.204;2023-04-09T09:21:33;43.70;;;23.30;;
57337;SDS011;43173;50.980;18.204;2023-04-09T09:24:01;49.00;;;26.60;;
57337;SDS011;43173;50.980;18.204;2023-04-09T09:26:28;50.40;;;28.50;;
57337;SDS011;43173;50.980;18.204;2023-04-09T09:28:55;48.50;;;27.80;;
57337;SDS011;43173;50.980;18.204;2023-04-09T09:31:24;44.80;;;25.70;;
57337;SDS011;43173;50.980;18.204;2023-04-09T09:33:50;50.80;;;28.20;;
57337;SDS011;43173;50.980;18.204;2023-04-09T09:38:59;48.70;;;25.20;;
57337;SDS011;43173;50.980;18.204;2023-04-09T09:41:29;58.60;;;33.70;;
57337;SDS011;43173;50.980;18.204;2023-04-09T09:43:55;50.50;;;27.50;;
57337;SDS011;43173;50.980;18.204;2023-04-09T09:46:21;58.80;;;33.90;;
57337;SDS011;43173;50.980;18.204;2023-04-09T09:48:47;54.00;;;29.20;;
57337;SDS011;43173;50.980;18.204;2023-04-09T09:51:14;62.80;;;34.00;;
57337;SDS011;43173;50.980;18.204;2023-04-09T09:53:42;58.30;;;31.80;;
57337;SDS011;43173;50.980;18.204;2023-04-09T09:56:18;59.80;;;32.90;;
57337;SDS011;43173;50.980;18.204;2023-04-09T09:59:09;59.60;;;29.90;;
57337;SDS011;43173;50.980;18.204;2023-04-09T10:04:06;60.90;;;31.40;;
57337;SDS011;43173;50.980;18.204;2023-04-09T10:06:38;61.70;;;33.10;;
57337;SDS011;43173;50.980;18.204;2023-04-09T10:09:06;59.80;;;33.60;;
57337;SDS011;43173;50.980;18.204;2023-04-09T10:11:32;52.50;;;31.10;;
57337;SDS011;43173;50.980;18.204;2023-04-09T10:14:01;56.50;;;31.80;;
57337;SDS011;43173;50.980;18.204;2023-04-09T10:16:27;53.80;;;31.20;;
57337;SDS011;43173;50.980;18.204;2023-04-09T10:18:56;57.70;;;31.50;;
57337;SDS011;43173;50.980;18.204;2023-04-09T10:24:07;55.40;;;32.70;;
57337;SDS011;43173;50.980;18.204;2023-04-09T10:26:33;55.80;;;32.10;;
57337;SDS011;43173;50.980;18.204;2023-04-09T10:29:07;51.40;;;29.00;;
57337;SDS011;43173;50.980;18.204;2023-04-09T10:32:20;51.40;;;31.00;;
57337;SDS011;43173;50.980;18.204;2023-04-09T10:34:40;50.60;;;30.00;;
57337;SDS011;43173;50.980;18.204;2023-04-09T10:37:07;52.00;;;30.90;;
57337;SDS011;43173;50.980;18.204;2023-04-09T10:39:37;54.60;;;31.30;;
57337;SDS011;43173;50.980;18.204;2023-04-09T10:42:10;50.30;;;31.40;;
57337;SDS011;43173;50.980;18.204;2023-04-09T10:44:38;46.20;;;28.20;;
57337;SDS011;43173;50.980;18.204;2023-04-09T10:47:08;49.60;;;28.60;;
57337;SDS011;43173;50.980;18.204;2023-04-09T10:49:35;49.10;;;30.40;;
57337;SDS011;43173;50.980;18.204;2023-04-09T10:52:05;51.60;;;31.00;;
57337;SDS011;43173;50.980;18.204;2023-04-09T10:54:39;50.40;;;29.70;;
57337;SDS011;43173;50.980;18.204;2023-04-09T10:59:51;55.30;;;31.20;;
57337;SDS011;43173;50.980;18.204;2023-04-09T11:04:55;57.60;;;32.50;;
57337;SDS011;43173;50.980;18.204;2023-04-09T11:07:27;55.00;;;31.00;;
57337;SDS011;43173;50.980;18.204;2023-04-09T11:21:49;52.50;;;35.50;;
57337;SDS011;43173;50.980;18.204;2023-04-09T11:24:17;53.40;;;34.90;;
57337;SDS011;43173;50.980;18.204;2023-04-09T11:26:43;64.90;;;41.00;;
57337;SDS011;43173;50.980;18.204;2023-04-09T11:29:10;61.10;;;38.10;;
57337;SDS011;43173;50.980;18.204;2023-04-09T11:31:35;53.70;;;33.80;;
57337;SDS011;43173;50.980;18.204;2023-04-09T11:34:01;49.90;;;31.50;;
57337;SDS011;43173;50.980;18.204;2023-04-09T11:36:27;51.20;;;31.60;;
57337;SDS011;43173;50.980;18.204;2023-04-09T11:38:53;53.70;;;34.20;;
57337;SDS011;43173;50.980;18.204;2023-04-09T11:44:03;53.20;;;31.60;;
57337;SDS011;43173;50.980;18.204;2023-04-09T11:46:30;51.40;;;33.50;;
57337;SDS011;43173;50.980;18.204;2023-04-09T11:48:56;54.10;;;31.60;;
57337;SDS011;43173;50.980;18.204;2023-04-09T11:51:22;54.40;;;31.60;;
57337;SDS011;43173;50.980;18.204;2023-04-09T11:53:48;56.60;;;34.20;;
57337;SDS011;43173;50.980;18.204;2023-04-09T11:56:15;60.40;;;36.30;;
57337;SDS011;43173;50.980;18.204;2023-04-09T11:58:44;57.10;;;34.80;;
57337;SDS011;43173;50.980;18.204;2023-04-09T12:01:11;58.50;;;36.30;;
57337;SDS011;43173;50.980;18.204;2023-04-09T12:03:37;58.80;;;36.30;;
57337;SDS011;43173;50.980;18.204;2023-04-09T12:06:04;58.10;;;34.60;;
57337;SDS011;43173;50.980;18.204;2023-04-09T12:08:32;57.80;;;34.90;;
57337;SDS011;43173;50.980;18.204;2023-04-09T12:11:09;55.50;;;33.90;;
57337;SDS011;43173;50.980;18.204;2023-04-09T12:13:36;57.80;;;34.30;;
57337;SDS011;43173;50.980;18.204;2023-04-09T12:16:07;57.10;;;34.60;;
57337;SDS011;43173;50.980;18.204;2023-04-09T12:18:37;56.50;;;33.40;;
57337;SDS011;43173;50.980;18.204;2023-04-09T12:21:02;59.40;;;36.00;;
57337;SDS011;43173;50.980;18.204;2023-04-09T12:23:28;59.80;;;34.40;;
57337;SDS011;43173;50.980;18.204;2023-04-09T12:25:56;60.60;;;35.10;;
57337;SDS011;43173;50.980;18.204;2023-04-09T12:28:25;61.70;;;36.10;;
57337;SDS011;43173;50.980;18.204;2023-04-09T12:30:51;56.70;;;33.50;;
57337;SDS011;43173;50.980;18.204;2023-04-09T12:33:18;57.70;;;35.20;;
57337;SDS011;43173;50.980;18.204;2023-04-09T12:35:44;57.70;;;35.70;;
57337;SDS011;43173;50.980;18.204;2023-04-09T12:38:10;58.50;;;34.70;;
57337;SDS011;43173;50.980;18.204;2023-04-09T12:40:36;55.00;;;34.60;;
57337;SDS011;43173;50.980;18.204;2023-04-09T12:43:02;63.00;;;38.60;;
57337;SDS011;43173;50.980;18.204;2023-04-09T12:45:29;59.20;;;35.70;;
57337;SDS011;43173;50.980;18.204;2023-04-09T12:47:55;52.50;;;32.00;;
57337;SDS011;43173;50.980;18.204;2023-04-09T12:50:21;54.30;;;32.50;;
57337;SDS011;43173;50.980;18.204;2023-04-09T12:52:46;47.90;;;29.10;;
57337;SDS011;43173;50.980;18.204;2023-04-09T12:55:12;51.30;;;30.50;;
57337;SDS011;43173;50.980;18.204;2023-04-09T12:57:40;48.70;;;29.00;;
57337;SDS011;43173;50.980;18.204;2023-04-09T13:00:07;42.80;;;25.80;;
57337;SDS011;43173;50.980;18.204;2023-04-09T13:02:34;52.00;;;31.40;;
57337;SDS011;43173;50.980;18.204;2023-04-09T13:05:00;47.30;;;28.10;;
57337;SDS011;43173;50.980;18.204;2023-04-09T13:07:26;56.00;;;31.80;;
57337;SDS011;43173;50.980;18.204;2023-04-09T13:09:54;53.70;;;31.80;;
57337;SDS011;43173;50.980;18.204;2023-04-09T13:12:20;53.60;;;30.30;;
57337;SDS011;43173;50.980;18.204;2023-04-09T13:14:46;54.60;;;32.90;;
57337;SDS011;43173;50.980;18.204;2023-04-09T13:17:13;54.60;;;31.90;;
57337;SDS011;43173;50.980;18.204;2023-04-09T13:19:39;56.90;;;32.70;;
57337;SDS011;43173;50.980;18.204;2023-04-09T13:22:05;61.50;;;35.10;;
57337;SDS011;43173;50.980;18.204;2023-04-09T13:24:35;57.90;;;32.10;;
57337;SDS011;43173;50.980;18.204;2023-04-09T13:27:01;52.40;;;29.90;;
57337;SDS011;43173;50.980;18.204;2023-04-09T13:29:28;57.20;;;32.30;;
57337;SDS011;43173;50.980;18.204;2023-04-09T13:31:54;56.30;;;33.20;;
57337;SDS011;43173;50.980;18.204;2023-04-09T13:34:21;56.30;;;33.30;;
57337;SDS011;43173;50.980;18.204;2023-04-09T13:36:48;58.20;;;33.00;;
57337;SDS011;43173;50.980;18.204;2023-04-09T13:39:13;59.10;;;34.40;;
57337;SDS011;43173;50.980;18.204;2023-04-09T13:41:39;56.60;;;32.90;;
57337;SDS011;43173;50.980;18.204;2023-04-09T13:44:05;60.70;;;33.80;;
57337;SDS011;43173;50.980;18.204;2023-04-09T13:46:30;53.60;;;31.70;;
57337;SDS011;43173;50.980;18.204;2023-04-09T13:48:56;57.20;;;32.30;;
57337;SDS011;43173;50.980;18.204;2023-04-09T13:51:22;60.40;;;32.20;;
57337;SDS011;43173;50.980;18.204;2023-04-09T13:53:48;47.60;;;26.40;;
57337;SDS011;43173;50.980;18.204;2023-04-09T13:56:14;61.90;;;32.90;;
57337;SDS011;43173;50.980;18.204;2023-04-09T13:58:40;48.50;;;27.50;;
57337;SDS011;43173;50.980;18.204;2023-04-09T14:01:07;51.30;;;27.90;;
57337;SDS011;43173;50.980;18.204;2023-04-09T14:03:33;54.70;;;29.70;;
57337;SDS011;43173;50.980;18.204;2023-04-09T14:05:59;55.20;;;31.90;;
57337;SDS011;43173;50.980;18.204;2023-04-09T14:08:26;49.90;;;29.70;;
57337;SDS011;43173;50.980;18.204;2023-04-09T14:10:51;60.00;;;34.20;;
57337;SDS011;43173;50.980;18.204;2023-04-09T14:13:17;64.70;;;33.40;;
57337;SDS011;43173;50.980;18.204;2023-04-09T14:15:42;52.80;;;29.40;;
57337;SDS011;43173;50.980;18.204;2023-04-09T14:18:10;57.30;;;30.30;;
57337;SDS011;43173;50.980;18.204;2023-04-09T14:20:35;53.20;;;28.20;;
57337;SDS011;43173;50.980;18.204;2023-04-09T14:23:02;64.60;;;35.10;;
57337;SDS011;43173;50.980;18.204;2023-04-09T14:25:28;57.00;;;31.20;;
57337;SDS011;43173;50.980;18.204;2023-04-09T14:27:54;61.80;;;35.40;;
57337;SDS011;43173;50.980;18.204;2023-04-09T14:30:20;60.30;;;33.00;;
57337;SDS011;43173;50.980;18.204;2023-04-09T14:32:45;58.70;;;32.00;;
57337;SDS011;43173;50.980;18.204;2023-04-09T14:35:11;56.60;;;32.40;;
57337;SDS011;43173;50.980;18.204;2023-04-09T14:37:36;61.60;;;32.60;;
57337;SDS011;43173;50.980;18.204;2023-04-09T14:40:05;56.90;;;32.70;;
57337;SDS011;43173;50.980;18.204;2023-04-09T14:42:32;58.90;;;33.80;;
57337;SDS011;43173;50.980;18.204;2023-04-09T14:44:58;53.10;;;27.80;;
57337;SDS011;43173;50.980;18.204;2023-04-09T14:47:23;61.60;;;32.20;;
57337;SDS011;43173;50.980;18.204;2023-04-09T14:49:49;52.70;;;30.20;;
57337;SDS011;43173;50.980;18.204;2023-04-09T14:52:15;53.00;;;30.20;;
57337;SDS011;43173;50.980;18.204;2023-04-09T14:54:40;50.40;;;28.80;;
57337;SDS011;43173;50.980;18.204;2023-04-09T14:57:06;52.30;;;29.00;;
57337;SDS011;43173;50.980;18.204;2023-04-09T14:59:32;50.60;;;29.20;;
57337;SDS011;43173;50.980;18.204;2023-04-09T15:01:58;49.40;;;28.10;;
57337;SDS011;43173;50.980;18.204;2023-04-09T15:04:24;47.20;;;26.20;;